createdAt,value
2019-01-16T00:00:17.557Z,15.93
2019-01-16T00:02:55.707Z,16.23
2019-01-16T00:05:51.922Z,14.73
2019-01-16T00:12:01.280Z,16.30
2019-01-16T00:14:54.528Z,16.33
2019-01-16T00:18:02.554Z,17.20
2019-01-16T00:21:10.893Z,16.43
2019-01-16T00:24:19.408Z,16.27
2019-01-16T00:27:27.462Z,21.40
2019-01-16T00:30:35.658Z,17.00
2019-01-16T00:33:33.900Z,17.13
2019-01-16T00:39:46.416Z,15.13
2019-01-16T00:42:54.430Z,15.50
2019-01-16T00:46:02.519Z,15.70
2019-01-16T00:49:03.887Z,15.83
2019-01-16T00:52:11.968Z,16.40
2019-01-16T00:55:39.523Z,17.80
2019-01-16T00:58:47.598Z,18.57
2019-01-16T01:01:55.659Z,19.27
2019-01-16T01:05:03.673Z,19.13
2019-01-16T01:08:11.792Z,19.37
2019-01-16T01:11:19.823Z,18.10
2019-01-16T01:14:27.909Z,17.37
2019-01-16T01:17:17.927Z,19.13
2019-01-16T01:20:26.757Z,18.40
2019-01-16T01:23:34.829Z,16.80
2019-01-16T01:26:42.831Z,17.80
2019-01-16T01:29:50.893Z,17.30
2019-01-16T01:32:58.942Z,16.60
2019-01-16T01:36:07.214Z,17.50
2019-01-16T01:39:15.502Z,19.37
2019-01-16T01:42:23.756Z,17.80
2019-01-16T01:45:31.927Z,18.17
2019-01-16T01:48:40.370Z,17.57
2019-01-16T01:51:48.384Z,17.20
2019-01-16T01:54:56.438Z,18.30
2019-01-16T01:58:04.758Z,18.27
2019-01-16T02:01:02.976Z,19.43
2019-01-16T02:04:11.020Z,19.00
2019-01-16T02:07:19.321Z,19.63
2019-01-16T02:10:28.356Z,18.33
2019-01-16T02:13:36.399Z,21.33
2019-01-16T02:16:28.976Z,18.20
2019-01-16T02:19:37.023Z,19.87
2019-01-16T02:22:45.327Z,18.73
2019-01-16T02:25:53.345Z,18.03
2019-01-16T02:28:55.117Z,17.17
2019-01-16T02:32:03.434Z,19.13
2019-01-16T02:35:02.385Z,20.00
2019-01-16T02:37:58.378Z,20.77
2019-01-16T02:41:06.409Z,20.03
2019-01-16T02:44:14.975Z,19.50
2019-01-16T02:47:13.100Z,19.13
2019-01-16T02:50:21.125Z,20.00
2019-01-16T02:53:29.415Z,22.00
2019-01-16T02:56:37.784Z,25.40
2019-01-16T02:59:45.802Z,24.87
2019-01-16T03:02:53.888Z,22.50
2019-01-16T03:06:01.902Z,22.03
2019-01-16T03:09:09.979Z,23.77
2019-01-16T03:12:18.008Z,21.10
2019-01-16T03:15:47.793Z,20.27
2019-01-16T03:18:48.912Z,21.07
2019-01-16T03:21:56.929Z,21.40
2019-01-16T03:25:04.976Z,20.63
2019-01-16T03:28:13.067Z,24.33
2019-01-16T03:34:38.524Z,23.70
2019-01-16T03:37:37.411Z,22.73
2019-01-16T03:40:45.740Z,20.83
2019-01-16T03:43:54.185Z,21.23
2019-01-16T03:47:02.248Z,20.20
2019-01-16T03:50:03.279Z,20.90
2019-01-16T03:53:11.358Z,21.40
2019-01-16T03:56:19.414Z,17.80
2019-01-16T03:59:27.464Z,14.93
2019-01-16T04:02:27.213Z,16.43
2019-01-16T04:05:35.518Z,13.10
2019-01-16T04:08:43.600Z,11.03
2019-01-16T04:11:51.918Z,10.60
2019-01-16T04:15:00.220Z,11.97
2019-01-16T04:18:04.297Z,11.20
2019-01-16T04:21:12.355Z,10.40
2019-01-16T04:24:20.419Z,9.80
2019-01-16T04:27:28.493Z,9.57
2019-01-16T04:30:36.616Z,9.00
2019-01-16T04:33:44.736Z,9.13
2019-01-16T04:36:52.782Z,10.57
2019-01-16T04:40:00.830Z,8.73
2019-01-16T04:43:08.880Z,8.50
2019-01-16T04:46:16.928Z,9.17
2019-01-16T04:49:16.379Z,8.90
2019-01-16T04:52:24.771Z,10.30
2019-01-16T04:55:25.526Z,8.40
2019-01-16T04:58:33.913Z,11.37
2019-01-16T05:01:42.226Z,10.10
2019-01-16T05:04:50.526Z,8.43
2019-01-16T05:07:53.481Z,7.43
2019-01-16T05:11:01.847Z,9.13
2019-01-16T05:14:09.887Z,8.00
2019-01-16T05:17:17.945Z,11.73
2019-01-16T05:20:13.583Z,8.27
2019-01-16T05:23:21.968Z,7.50
2019-01-16T05:26:30.005Z,8.67
2019-01-16T05:29:38.537Z,9.20
2019-01-16T05:32:46.596Z,10.43
2019-01-16T05:35:45.884Z,9.80
2019-01-16T05:38:53.914Z,8.70
2019-01-16T05:42:01.952Z,11.60
2019-01-16T05:45:09.993Z,13.27
2019-01-16T05:48:18.272Z,12.77
2019-01-16T05:51:26.340Z,11.00
2019-01-16T05:54:34.413Z,14.27
2019-01-16T05:57:13.021Z,11.00
2019-01-16T05:59:51.665Z,14.43
2019-01-16T06:02:48.117Z,11.50
2019-01-16T06:05:56.181Z,11.20
2019-01-16T06:08:54.960Z,11.50
2019-01-16T06:12:03.024Z,11.07
2019-01-16T06:15:11.052Z,11.17
2019-01-16T06:18:19.410Z,11.70
2019-01-16T06:21:20.657Z,11.47
2019-01-16T06:24:28.697Z,12.23
2019-01-16T06:27:29.854Z,13.60
2019-01-16T06:30:37.917Z,13.40
2019-01-16T06:33:45.959Z,12.60
2019-01-16T06:36:54.252Z,12.47
2019-01-16T06:40:02.306Z,12.20
2019-01-16T06:43:10.352Z,9.73
2019-01-16T06:46:18.665Z,9.73
2019-01-16T06:49:26.714Z,9.07
2019-01-16T06:52:22.503Z,9.50
2019-01-16T06:55:30.637Z,7.90
2019-01-16T06:58:38.927Z,8.17
2019-01-16T07:01:47.037Z,8.60
2019-01-16T07:04:55.062Z,7.77
2019-01-16T07:08:03.105Z,7.87
2019-01-16T07:11:11.168Z,7.07
2019-01-16T07:14:19.208Z,6.77
2019-01-16T07:17:27.507Z,5.93
2019-01-16T07:20:25.791Z,6.30
2019-01-16T07:23:22.893Z,5.63
2019-01-16T07:26:30.927Z,5.97
2019-01-16T07:29:38.987Z,5.80
2019-01-16T07:32:47.014Z,4.60
2019-01-16T07:35:55.075Z,5.00
2019-01-16T07:39:03.145Z,4.93
2019-01-16T07:42:11.430Z,5.33
2019-01-16T07:45:09.012Z,5.53
2019-01-16T07:48:17.059Z,5.63
2019-01-16T07:51:25.141Z,6.23
2019-01-16T07:54:33.204Z,5.47
2019-01-16T07:57:41.829Z,6.80
2019-01-16T08:00:44.292Z,5.50
2019-01-16T08:03:52.349Z,5.70
2019-01-16T08:07:00.401Z,5.73
2019-01-16T08:10:00.265Z,5.77
2019-01-16T08:13:08.540Z,8.20
2019-01-16T08:16:16.686Z,5.90
2019-01-16T08:19:25.101Z,5.63
2019-01-16T08:22:23.139Z,8.00
2019-01-16T08:25:31.224Z,6.33
2019-01-16T08:28:39.323Z,8.73
2019-01-16T08:31:47.613Z,6.13
2019-01-16T08:34:55.683Z,6.17
2019-01-16T08:38:03.759Z,5.77
2019-01-16T08:41:11.821Z,6.30
2019-01-16T08:44:19.884Z,5.50
2019-01-16T08:47:27.934Z,5.80
2019-01-16T08:50:36.149Z,6.80
2019-01-16T08:53:44.480Z,6.00
2019-01-16T08:56:52.555Z,6.77
2019-01-16T08:59:51.390Z,6.77
2019-01-16T09:02:59.411Z,6.70
2019-01-16T09:06:07.999Z,7.70
2019-01-16T09:09:16.289Z,8.13
2019-01-16T09:12:24.338Z,6.00
2019-01-16T09:15:34.888Z,5.30
2019-01-16T09:18:33.708Z,7.50
2019-01-16T09:21:34.999Z,5.57
2019-01-16T09:24:36.491Z,4.70
2019-01-16T09:27:44.540Z,3.77
2019-01-16T09:30:43.725Z,4.30
2019-01-16T09:33:51.753Z,4.80
2019-01-16T09:36:59.820Z,4.80
2019-01-16T09:40:07.886Z,4.13
2019-01-16T09:43:15.920Z,4.73
2019-01-16T09:46:24.261Z,3.63
2019-01-16T09:49:32.293Z,3.33
2019-01-16T09:52:40.365Z,3.07
2019-01-16T09:55:48.413Z,4.20
2019-01-16T09:58:48.087Z,3.50
2019-01-16T10:01:56.123Z,2.60
2019-01-16T10:05:04.208Z,2.60
2019-01-16T10:08:12.211Z,2.67
2019-01-16T10:11:20.251Z,3.10
2019-01-16T10:14:28.312Z,2.50
2019-01-16T10:17:36.556Z,2.70
2019-01-16T10:20:46.187Z,3.00
2019-01-16T10:23:48.601Z,2.40
2019-01-16T10:26:56.786Z,4.50
2019-01-16T10:29:44.670Z,3.37
2019-01-16T10:32:36.733Z,2.90
2019-01-16T10:35:41.685Z,2.37
2019-01-16T10:38:33.159Z,1.90
2019-01-16T10:41:25.125Z,2.27
2019-01-16T10:44:04.309Z,1.80
2019-01-16T10:47:11.220Z,1.80
2019-01-16T10:50:06.447Z,2.10
2019-01-16T10:52:54.160Z,2.37
2019-01-16T10:55:43.103Z,1.73
2019-01-16T10:58:41.373Z,1.87
2019-01-16T11:01:19.342Z,2.43
2019-01-16T11:04:07.553Z,1.43
2019-01-16T11:07:02.534Z,1.60
2019-01-16T11:09:57.638Z,2.07
2019-01-16T11:12:38.228Z,1.90
2019-01-16T11:15:21.370Z,7.80
2019-01-16T11:18:28.844Z,1.93
2019-01-16T11:21:30.255Z,1.97
2019-01-16T11:24:25.107Z,1.80
2019-01-16T11:27:20.291Z,3.27
2019-01-16T11:30:09.183Z,1.57
2019-01-16T11:33:04.656Z,1.77
2019-01-16T11:35:59.756Z,2.03
2019-01-16T11:38:45.618Z,1.90
2019-01-16T11:41:24.038Z,1.50
2019-01-16T11:44:02.939Z,1.77
2019-01-16T11:46:54.699Z,1.93
2019-01-16T11:49:41.013Z,2.17
2019-01-16T11:52:24.733Z,1.47
2019-01-16T11:55:06.125Z,1.77
2019-01-16T11:58:04.275Z,1.40
2019-01-16T12:00:52.168Z,1.47
2019-01-16T12:03:46.706Z,1.80
2019-01-16T12:06:34.473Z,2.87
2019-01-16T12:09:24.246Z,1.70
2019-01-16T12:12:05.838Z,3.23
2019-01-16T12:14:53.671Z,1.50
2019-01-16T12:17:32.784Z,1.60
2019-01-16T12:20:15.056Z,1.70
2019-01-16T12:23:06.234Z,1.57
2019-01-16T12:25:51.283Z,1.50
2019-01-16T12:28:45.974Z,1.47
2019-01-16T12:31:23.850Z,1.70
2019-01-16T12:34:11.714Z,2.00
2019-01-16T12:36:59.288Z,1.87
2019-01-16T12:39:45.474Z,1.60
2019-01-16T12:42:34.276Z,1.63
2019-01-16T12:45:29.438Z,2.13
2019-01-16T12:48:24.441Z,4.67
2019-01-16T12:51:11.005Z,2.30
2019-01-16T12:53:58.745Z,2.10
2019-01-16T12:56:37.838Z,1.27
2019-01-16T12:59:25.853Z,2.50
2019-01-16T13:02:33.497Z,1.30
2019-01-16T13:05:15.735Z,1.47
2019-01-16T13:08:15.820Z,1.60
2019-01-16T13:11:03.439Z,1.80
2019-01-16T13:13:50.948Z,1.70
2019-01-16T13:16:45.683Z,1.60
2019-01-16T13:19:26.291Z,9.67
2019-01-16T13:22:18.534Z,1.70
2019-01-16T13:25:19.752Z,2.10
2019-01-16T13:28:13.491Z,2.23
2019-01-16T13:31:01.325Z,2.10
2019-01-16T13:33:53.489Z,2.17
2019-01-16T13:36:42.010Z,1.93
2019-01-16T13:39:32.719Z,2.03
2019-01-16T13:42:14.007Z,3.33
2019-01-16T13:45:07.793Z,2.50
2019-01-16T13:47:55.586Z,3.83
2019-01-16T13:50:44.394Z,1.87
2019-01-16T13:53:36.396Z,2.47
2019-01-16T13:56:24.587Z,2.80
2019-01-16T13:59:18.003Z,2.10
2019-01-16T14:02:06.116Z,2.50
2019-01-16T14:04:48.111Z,4.00
2019-01-16T14:07:35.859Z,2.30
2019-01-16T14:10:15.157Z,2.57
2019-01-16T14:13:06.834Z,2.53
2019-01-16T14:15:58.953Z,2.20
2019-01-16T14:18:36.546Z,7.60
2019-01-16T14:21:21.532Z,3.10
2019-01-16T14:24:00.048Z,4.50
2019-01-16T14:26:46.113Z,2.80
2019-01-16T14:29:43.984Z,3.93
2019-01-16T14:32:27.259Z,3.07
2019-01-16T14:35:19.052Z,3.40
2019-01-16T14:38:06.937Z,4.97
2019-01-16T14:40:50.874Z,3.77
2019-01-16T14:43:30.277Z,4.13
2019-01-16T14:46:22.023Z,4.37
2019-01-16T14:49:05.671Z,3.73
2019-01-16T14:51:59.467Z,5.93
2019-01-16T14:54:50.546Z,5.67
2019-01-16T14:57:45.695Z,4.90
2019-01-16T15:00:39.529Z,4.83
2019-01-16T15:03:32.226Z,3.80
2019-01-16T15:06:29.789Z,4.00
2019-01-16T15:09:17.284Z,4.57
2019-01-16T15:12:09.248Z,3.63
2019-01-16T15:15:07.811Z,4.20
2019-01-16T15:17:55.952Z,4.87
2019-01-16T15:20:43.564Z,7.10
2019-01-16T15:23:24.119Z,7.70
2019-01-16T15:26:12.031Z,6.53
2019-01-16T15:29:09.447Z,5.40
2019-01-16T15:31:56.869Z,7.70
2019-01-16T15:34:40.012Z,5.50
2019-01-16T15:37:18.512Z,4.37
2019-01-16T15:40:26.063Z,4.43
2019-01-16T15:43:24.181Z,6.70
2019-01-16T15:46:22.204Z,5.87
2019-01-16T15:49:13.943Z,6.00
2019-01-16T15:52:05.576Z,8.20
2019-01-16T15:54:55.097Z,9.60
2019-01-16T15:57:33.651Z,8.73
2019-01-16T16:00:26.603Z,7.47
2019-01-16T16:03:25.731Z,8.77
2019-01-16T16:06:10.891Z,8.80
2019-01-16T16:08:59.407Z,8.37
2019-01-16T16:11:45.898Z,6.87
2019-01-16T16:14:25.460Z,9.20
2019-01-16T16:17:08.352Z,7.77
2019-01-16T16:20:03.283Z,14.87
2019-01-16T16:22:40.218Z,9.40
2019-01-16T16:25:38.581Z,9.87
2019-01-16T16:28:18.538Z,8.97
2019-01-16T16:31:10.309Z,12.30
2019-01-16T16:33:58.691Z,11.20
2019-01-16T16:36:43.075Z,9.53
2019-01-16T16:39:31.119Z,14.87
2019-01-16T16:42:28.025Z,9.10
2019-01-16T16:45:12.076Z,10.67
2019-01-16T16:48:07.273Z,9.43
2019-01-16T16:50:55.374Z,9.10
2019-01-16T16:53:37.179Z,12.60
2019-01-16T16:56:18.125Z,11.93
2019-01-16T16:59:10.832Z,12.37
2019-01-16T17:02:01.584Z,9.30
2019-01-16T17:04:53.494Z,14.67
2019-01-16T17:07:32.317Z,9.00
2019-01-16T17:10:23.296Z,9.00
2019-01-16T17:13:12.940Z,9.10
2019-01-16T17:16:01.545Z,13.70
2019-01-16T17:18:51.745Z,10.67
2019-01-16T17:21:48.159Z,10.80
2019-01-16T17:24:32.762Z,11.73
2019-01-16T17:27:21.570Z,9.87
2019-01-16T17:30:09.023Z,9.10
2019-01-16T17:33:01.018Z,9.97
2019-01-16T17:35:58.995Z,9.17
2019-01-16T17:38:40.410Z,10.90
2019-01-16T17:41:27.276Z,8.80
2019-01-16T17:44:12.606Z,9.97
2019-01-16T17:47:07.658Z,11.53
2019-01-16T17:49:57.084Z,12.30
2019-01-16T17:52:42.850Z,11.43
2019-01-16T17:55:25.768Z,16.27
2019-01-16T17:58:15.955Z,18.53
2019-01-16T18:01:03.502Z,8.93
2019-01-16T18:03:44.095Z,7.83
2019-01-16T18:06:26.315Z,8.67
2019-01-16T18:09:07.144Z,8.80
2019-01-16T18:11:57.652Z,9.53
2019-01-16T18:14:45.119Z,10.30
2019-01-16T18:17:34.135Z,13.23
2019-01-16T18:20:20.194Z,12.67
2019-01-16T18:23:21.109Z,13.17
2019-01-16T18:25:58.343Z,14.60
2019-01-16T18:28:36.718Z,13.97
2019-01-16T18:31:16.405Z,14.10
2019-01-16T18:34:04.918Z,16.13
2019-01-16T18:36:51.039Z,13.90
2019-01-16T18:39:55.385Z,15.83
2019-01-16T18:42:43.629Z,16.13
2019-01-16T18:45:24.217Z,12.97
2019-01-16T18:48:16.240Z,18.30
2019-01-16T18:51:17.248Z,11.30
2019-01-16T18:54:09.663Z,19.43
2019-01-16T18:56:57.409Z,13.07
2019-01-16T18:59:45.701Z,15.73
2019-01-16T19:02:31.498Z,12.37
2019-01-16T19:05:17.501Z,13.07
2019-01-16T19:08:21.974Z,14.00
2019-01-16T19:11:00.451Z,17.53
2019-01-16T19:13:42.511Z,10.40
2019-01-16T19:16:20.258Z,11.67
2019-01-16T19:19:00.742Z,11.33
2019-01-16T19:21:40.847Z,13.70
2019-01-16T19:24:20.662Z,12.20
2019-01-16T19:27:18.786Z,11.23
2019-01-16T19:30:10.289Z,18.30
2019-01-16T19:32:57.880Z,12.20
2019-01-16T19:35:42.030Z,9.03
2019-01-16T19:38:28.585Z,12.10
2019-01-16T19:41:16.121Z,15.87
2019-01-16T19:44:03.945Z,10.33
2019-01-16T19:46:44.070Z,7.33
2019-01-16T19:49:39.140Z,9.83
2019-01-16T19:52:28.045Z,11.93
2019-01-16T19:55:35.699Z,9.00
2019-01-16T19:58:37.237Z,10.73
2019-01-16T20:01:26.629Z,12.50
2019-01-16T20:04:22.161Z,14.67
2019-01-16T20:07:01.580Z,9.37
2019-01-16T20:09:44.355Z,9.57
2019-01-16T20:12:32.520Z,12.67
2019-01-16T20:15:16.132Z,11.37
2019-01-16T20:18:03.742Z,8.87
2019-01-16T20:20:55.303Z,13.13
2019-01-16T20:23:43.410Z,11.50
2019-01-16T20:26:41.081Z,14.00
2019-01-16T20:29:28.831Z,16.30
2019-01-16T20:32:10.413Z,12.30
2019-01-16T20:35:01.499Z,9.83
2019-01-16T20:37:59.032Z,13.63
2019-01-16T20:40:48.361Z,12.07
2019-01-16T20:43:52.545Z,13.60
2019-01-16T20:46:40.416Z,10.30
2019-01-16T20:49:31.973Z,9.43
2019-01-16T20:52:20.251Z,16.97
2019-01-16T20:55:12.107Z,11.40
2019-01-16T20:57:53.658Z,8.93
2019-01-16T21:00:56.526Z,13.43
2019-01-16T21:03:44.383Z,16.03
2019-01-16T21:06:30.596Z,13.23
2019-01-16T21:09:15.031Z,11.17
2019-01-16T21:12:01.625Z,13.63
2019-01-16T21:14:44.353Z,13.10
2019-01-16T21:17:24.080Z,10.07
2019-01-16T21:20:21.469Z,13.83
2019-01-16T21:23:04.319Z,15.50
2019-01-16T21:26:08.648Z,14.37
2019-01-16T21:29:06.600Z,15.20
2019-01-16T21:31:54.781Z,22.87
2019-01-16T21:34:39.661Z,12.53
2019-01-16T21:37:27.277Z,12.63
2019-01-16T21:40:20.408Z,15.90
2019-01-16T21:43:08.498Z,12.77
2019-01-16T21:46:15.565Z,18.07
2019-01-16T21:48:57.664Z,13.53
2019-01-16T21:51:54.327Z,14.97
2019-01-16T21:54:42.233Z,13.47
2019-01-16T21:57:23.349Z,15.23
2019-01-16T22:00:12.489Z,13.80
2019-01-16T22:03:01.362Z,11.23
2019-01-16T22:05:49.597Z,16.23
2019-01-16T22:08:29.977Z,15.77
2019-01-16T22:11:18.074Z,14.03
2019-01-16T22:13:59.111Z,10.73
2019-01-16T22:16:54.025Z,15.20
2019-01-16T22:19:58.379Z,11.83
2019-01-16T22:23:02.362Z,13.00
2019-01-16T22:25:51.315Z,14.20
2019-01-16T22:28:38.191Z,10.23
2019-01-16T22:31:26.078Z,13.93
2019-01-16T22:34:33.388Z,15.87
2019-01-16T22:37:22.820Z,12.40
2019-01-16T22:40:03.276Z,22.80
2019-01-16T22:43:00.126Z,15.10
2019-01-16T22:45:50.480Z,13.90
2019-01-16T22:48:39.802Z,15.97
2019-01-16T22:51:22.574Z,11.30
2019-01-16T22:54:04.028Z,17.80
2019-01-16T22:56:51.527Z,19.20
2019-01-16T22:59:42.256Z,13.17
2019-01-16T23:02:50.288Z,13.40
2019-01-16T23:05:58.322Z,12.87
2019-01-16T23:09:06.333Z,11.33
2019-01-16T23:12:14.667Z,14.47
2019-01-16T23:15:22.904Z,16.10
2019-01-16T23:18:11.688Z,16.63
2019-01-16T23:21:19.750Z,13.87
2019-01-16T23:24:27.775Z,12.43
2019-01-16T23:27:35.918Z,13.17
2019-01-16T23:30:44.171Z,16.17
2019-01-16T23:33:52.502Z,12.90
2019-01-16T23:37:00.638Z,16.77
2019-01-16T23:40:08.714Z,17.13
2019-01-16T23:43:09.560Z,7.80
2019-01-16T23:46:08.638Z,13.50
2019-01-16T23:49:16.712Z,14.00
2019-01-16T23:52:12.307Z,10.53
2019-01-16T23:55:20.341Z,9.87
2019-01-16T23:58:28.447Z,11.03
